Terminal Aerodrome Forecast
Issued by NWS Houston/Galveston, TX

Home | Current Version | Previous Version | Text Only | Print | Product List | Glossary On
Versions: 1 2 3 4 5 6 7 8 9 10 11 12 13 14 15 16 17 18 19 20 21 22
000
FTUS44 KHGX 172330
TAFGLS
TAF
KGLS 172330Z 1800/1824 VRB03KT P6SM FEW010 OVC250
     FM180100 VRB03KT 5SM BR BKN010
     FM180500 VRB03KT 3SM BR OVC007
     FM180800 03006KT 1SM -RA BR OVC003
     FM181600 05008KT 4SM -RA BR OVC007=

USA.gov is the U.S. government's official web portal to all federal, state and local government web resources and services.